sensor_id;sensor_type;location;lat;lon;timestamp;temperature;humidity
20714;DHT22;10518;50.742;4.226;2022-10-16T00:00:37;15.20;99.90
20714;DHT22;10518;50.742;4.226;2022-10-16T00:03:04;15.20;99.90
20714;DHT22;10518;50.742;4.226;2022-10-16T00:05:31;15.10;99.90
20714;DHT22;10518;50.742;4.226;2022-10-16T00:07:56;15.20;99.90
20714;DHT22;10518;50.742;4.226;2022-10-16T00:10:22;15.10;99.90
20714;DHT22;10518;50.742;4.226;2022-10-16T00:12:48;15.10;99.90
20714;DHT22;10518;50.742;4.226;2022-10-16T00:15:14;14.90;99.90
20714;DHT22;10518;50.742;4.226;2022-10-16T00:17:40;14.80;99.90
20714;DHT22;10518;50.742;4.226;2022-10-16T00:20:06;15.00;99.90
20714;DHT22;10518;50.742;4.226;2022-10-16T00:22:32;15.10;99.90
20714;DHT22;10518;50.742;4.226;2022-10-16T00:24:58;14.90;99.90
20714;DHT22;10518;50.742;4.226;2022-10-16T00:27:24;14.80;99.90
20714;DHT22;10518;50.742;4.226;2022-10-16T00:29:50;14.90;99.90
20714;DHT22;10518;50.742;4.226;2022-10-16T00:32:17;14.90;99.90
20714;DHT22;10518;50.742;4.226;2022-10-16T00:34:43;14.90;99.90
20714;DHT22;10518;50.742;4.226;2022-10-16T00:37:08;14.90;99.90
20714;DHT22;10518;50.742;4.226;2022-10-16T00:39:34;14.80;99.90
20714;DHT22;10518;50.742;4.226;2022-10-16T00:41:59;14.70;99.90
20714;DHT22;10518;50.742;4.226;2022-10-16T00:49:52;15.00;99.90
20714;DHT22;10518;50.742;4.226;2022-10-16T00:52:19;14.90;99.90
20714;DHT22;10518;50.742;4.226;2022-10-16T00:54:46;14.80;99.90
20714;DHT22;10518;50.742;4.226;2022-10-16T00:57:12;14.80;99.90
20714;DHT22;10518;50.742;4.226;2022-10-16T00:59:40;14.80;99.90
20714;DHT22;10518;50.742;4.226;2022-10-16T01:02:09;14.70;99.90
20714;DHT22;10518;50.742;4.226;2022-10-16T01:04:38;14.90;99.90
20714;DHT22;10518;50.742;4.226;2022-10-16T01:15:12;14.80;99.90
20714;DHT22;10518;50.742;4.226;2022-10-16T01:18:05;15.00;99.90
20714;DHT22;10518;50.742;4.226;2022-10-16T01:20:30;15.00;99.90
20714;DHT22;10518;50.742;4.226;2022-10-16T01:25:40;14.90;99.90
20714;DHT22;10518;50.742;4.226;2022-10-16T01:28:13;15.00;99.90
20714;DHT22;10518;50.742;4.226;2022-10-16T01:30:42;14.80;99.90
20714;DHT22;10518;50.742;4.226;2022-10-16T01:33:17;14.70;99.90
20714;DHT22;10518;50.742;4.226;2022-10-16T01:35:58;14.70;99.90
20714;DHT22;10518;50.742;4.226;2022-10-16T01:38:36;14.60;99.90
20714;DHT22;10518;50.742;4.226;2022-10-16T01:41:21;14.90;99.90
20714;DHT22;10518;50.742;4.226;2022-10-16T01:44:03;14.70;99.90
20714;DHT22;10518;50.742;4.226;2022-10-16T01:46:31;14.90;99.90
20714;DHT22;10518;50.742;4.226;2022-10-16T01:49:00;14.90;99.90
20714;DHT22;10518;50.742;4.226;2022-10-16T01:51:27;14.80;99.90
20714;DHT22;10518;50.742;4.226;2022-10-16T01:53:57;14.70;99.90
20714;DHT22;10518;50.742;4.226;2022-10-16T01:56:24;14.70;99.90
20714;DHT22;10518;50.742;4.226;2022-10-16T01:58:57;14.70;99.90
20714;DHT22;10518;50.742;4.226;2022-10-16T02:01:26;14.70;99.90
20714;DHT22;10518;50.742;4.226;2022-10-16T02:03:56;14.80;99.90
20714;DHT22;10518;50.742;4.226;2022-10-16T02:06:23;14.80;99.90
20714;DHT22;10518;50.742;4.226;2022-10-16T02:08:50;14.80;99.90
20714;DHT22;10518;50.742;4.226;2022-10-16T02:11:16;14.70;99.90
20714;DHT22;10518;50.742;4.226;2022-10-16T02:13:48;14.60;99.90
20714;DHT22;10518;50.742;4.226;2022-10-16T02:16:16;14.70;99.90
20714;DHT22;10518;50.742;4.226;2022-10-16T02:18:42;14.70;99.90
20714;DHT22;10518;50.742;4.226;2022-10-16T02:21:25;14.50;99.90
20714;DHT22;10518;50.742;4.226;2022-10-16T02:24:00;14.50;99.90
20714;DHT22;10518;50.742;4.226;2022-10-16T02:26:35;14.70;99.90
20714;DHT22;10518;50.742;4.226;2022-10-16T02:29:07;14.80;99.90
20714;DHT22;10518;50.742;4.226;2022-10-16T02:31:36;14.70;99.90
20714;DHT22;10518;50.742;4.226;2022-10-16T02:34:03;14.70;99.90
20714;DHT22;10518;50.742;4.226;2022-10-16T02:36:30;14.70;99.90
20714;DHT22;10518;50.742;4.226;2022-10-16T02:38:57;14.60;99.90
20714;DHT22;10518;50.742;4.226;2022-10-16T02:41:24;14.60;99.90
20714;DHT22;10518;50.742;4.226;2022-10-16T02:43:50;14.40;99.90
20714;DHT22;10518;50.742;4.226;2022-10-16T02:46:16;14.50;99.90
20714;DHT22;10518;50.742;4.226;2022-10-16T02:48:42;14.70;99.90
20714;DHT22;10518;50.742;4.226;2022-10-16T02:51:08;14.80;99.90
20714;DHT22;10518;50.742;4.226;2022-10-16T02:53:33;14.60;99.90
20714;DHT22;10518;50.742;4.226;2022-10-16T02:55:59;14.60;99.90
20714;DHT22;10518;50.742;4.226;2022-10-16T02:58:25;14.60;99.90
20714;DHT22;10518;50.742;4.226;2022-10-16T03:00:50;14.50;99.90
20714;DHT22;10518;50.742;4.226;2022-10-16T03:03:16;14.20;99.90
20714;DHT22;10518;50.742;4.226;2022-10-16T03:05:43;14.20;99.90
20714;DHT22;10518;50.742;4.226;2022-10-16T03:08:11;14.20;99.90
20714;DHT22;10518;50.742;4.226;2022-10-16T03:10:36;14.50;99.90
20714;DHT22;10518;50.742;4.226;2022-10-16T03:13:02;14.50;99.90
20714;DHT22;10518;50.742;4.226;2022-10-16T03:15:28;14.60;99.90
20714;DHT22;10518;50.742;4.226;2022-10-16T03:17:54;14.30;99.90
20714;DHT22;10518;50.742;4.226;2022-10-16T03:20:20;14.20;99.90
20714;DHT22;10518;50.742;4.226;2022-10-16T03:22:45;14.50;99.90
20714;DHT22;10518;50.742;4.226;2022-10-16T03:25:11;14.80;99.90
20714;DHT22;10518;50.742;4.226;2022-10-16T03:27:36;14.90;99.90
20714;DHT22;10518;50.742;4.226;2022-10-16T03:30:02;14.60;99.90
20714;DHT22;10518;50.742;4.226;2022-10-16T03:32:28;14.60;99.90
20714;DHT22;10518;50.742;4.226;2022-10-16T03:34:53;14.50;99.90
20714;DHT22;10518;50.742;4.226;2022-10-16T03:37:20;14.40;99.90
20714;DHT22;10518;50.742;4.226;2022-10-16T03:39:45;14.40;99.90
20714;DHT22;10518;50.742;4.226;2022-10-16T03:42:11;14.50;99.90
20714;DHT22;10518;50.742;4.226;2022-10-16T03:44:37;14.60;99.90
20714;DHT22;10518;50.742;4.226;2022-10-16T03:47:03;14.60;99.90
20714;DHT22;10518;50.742;4.226;2022-10-16T03:49:29;14.50;99.90
20714;DHT22;10518;50.742;4.226;2022-10-16T03:51:55;14.60;99.90
20714;DHT22;10518;50.742;4.226;2022-10-16T03:54:20;14.50;99.90
20714;DHT22;10518;50.742;4.226;2022-10-16T03:56:47;14.60;99.90
20714;DHT22;10518;50.742;4.226;2022-10-16T03:59:13;14.70;99.90
20714;DHT22;10518;50.742;4.226;2022-10-16T04:01:39;14.60;99.90
20714;DHT22;10518;50.742;4.226;2022-10-16T04:04:04;14.40;99.90
20714;DHT22;10518;50.742;4.226;2022-10-16T04:06:30;14.60;99.90
20714;DHT22;10518;50.742;4.226;2022-10-16T04:08:55;14.60;99.90
20714;DHT22;10518;50.742;4.226;2022-10-16T04:11:21;14.80;99.90
20714;DHT22;10518;50.742;4.226;2022-10-16T04:13:47;14.70;99.90
20714;DHT22;10518;50.742;4.226;2022-10-16T04:16:13;14.70;99.90
20714;DHT22;10518;50.742;4.226;2022-10-16T04:18:38;14.70;99.90
20714;DHT22;10518;50.742;4.226;2022-10-16T04:21:05;14.90;99.90
20714;DHT22;10518;50.742;4.226;2022-10-16T04:23:31;14.90;99.90
20714;DHT22;10518;50.742;4.226;2022-10-16T04:25:57;14.80;99.90
20714;DHT22;10518;50.742;4.226;2022-10-16T04:28:23;14.80;99.90
20714;DHT22;10518;50.742;4.226;2022-10-16T04:30:48;14.70;99.90
20714;DHT22;10518;50.742;4.226;2022-10-16T04:33:14;14.70;99.90
20714;DHT22;10518;50.742;4.226;2022-10-16T04:35:40;14.80;99.90
20714;DHT22;10518;50.742;4.226;2022-10-16T04:38:05;14.70;99.90
20714;DHT22;10518;50.742;4.226;2022-10-16T04:40:31;14.80;99.90
20714;DHT22;10518;50.742;4.226;2022-10-16T04:43:02;14.60;99.90
20714;DHT22;10518;50.742;4.226;2022-10-16T04:45:28;14.70;99.90
20714;DHT22;10518;50.742;4.226;2022-10-16T04:47:57;14.60;99.90
20714;DHT22;10518;50.742;4.226;2022-10-16T04:50:22;14.60;99.90
20714;DHT22;10518;50.742;4.226;2022-10-16T04:52:48;14.40;99.90
20714;DHT22;10518;50.742;4.226;2022-10-16T04:55:13;14.50;99.90
20714;DHT22;10518;50.742;4.226;2022-10-16T04:57:39;14.70;99.90
20714;DHT22;10518;50.742;4.226;2022-10-16T05:00:05;14.60;99.90
20714;DHT22;10518;50.742;4.226;2022-10-16T05:02:31;14.60;99.90
20714;DHT22;10518;50.742;4.226;2022-10-16T05:04:57;14.70;99.90
20714;DHT22;10518;50.742;4.226;2022-10-16T05:07:22;14.50;99.90
20714;DHT22;10518;50.742;4.226;2022-10-16T05:09:48;14.40;99.90
20714;DHT22;10518;50.742;4.226;2022-10-16T05:12:13;14.50;99.90
20714;DHT22;10518;50.742;4.226;2022-10-16T05:14:39;14.50;99.90
20714;DHT22;10518;50.742;4.226;2022-10-16T05:17:04;14.50;99.90
20714;DHT22;10518;50.742;4.226;2022-10-16T05:19:30;14.60;99.90
20714;DHT22;10518;50.742;4.226;2022-10-16T05:21:55;14.50;99.90
20714;DHT22;10518;50.742;4.226;2022-10-16T05:24:21;14.50;99.90
20714;DHT22;10518;50.742;4.226;2022-10-16T05:26:47;14.40;99.90
20714;DHT22;10518;50.742;4.226;2022-10-16T05:29:13;14.60;99.90
20714;DHT22;10518;50.742;4.226;2022-10-16T05:31:38;14.60;99.90
20714;DHT22;10518;50.742;4.226;2022-10-16T05:34:04;14.60;99.90
20714;DHT22;10518;50.742;4.226;2022-10-16T05:36:29;14.50;99.90
20714;DHT22;10518;50.742;4.226;2022-10-16T05:38:55;14.40;99.90
20714;DHT22;10518;50.742;4.226;2022-10-16T05:41:20;14.40;99.90
20714;DHT22;10518;50.742;4.226;2022-10-16T05:43:49;14.60;99.90
20714;DHT22;10518;50.742;4.226;2022-10-16T05:46:15;14.50;99.90
20714;DHT22;10518;50.742;4.226;2022-10-16T05:48:41;14.40;99.90
20714;DHT22;10518;50.742;4.226;2022-10-16T05:51:10;14.20;99.90
20714;DHT22;10518;50.742;4.226;2022-10-16T05:53:37;14.20;99.90
20714;DHT22;10518;50.742;4.226;2022-10-16T05:56:04;14.40;99.90
20714;DHT22;10518;50.742;4.226;2022-10-16T05:58:35;14.10;99.90
20714;DHT22;10518;50.742;4.226;2022-10-16T06:01:04;14.20;99.90
20714;DHT22;10518;50.742;4.226;2022-10-16T06:03:30;14.30;99.90
20714;DHT22;10518;50.742;4.226;2022-10-16T06:05:55;14.20;99.90
20714;DHT22;10518;50.742;4.226;2022-10-16T06:08:22;14.30;99.90
20714;DHT22;10518;50.742;4.226;2022-10-16T06:10:49;14.30;99.90
20714;DHT22;10518;50.742;4.226;2022-10-16T06:13:25;14.30;99.90
20714;DHT22;10518;50.742;4.226;2022-10-16T06:15:50;14.20;99.90
20714;DHT22;10518;50.742;4.226;2022-10-16T06:18:16;14.00;99.90
20714;DHT22;10518;50.742;4.226;2022-10-16T06:20:41;14.10;99.90
20714;DHT22;10518;50.742;4.226;2022-10-16T06:23:07;14.30;99.90
20714;DHT22;10518;50.742;4.226;2022-10-16T06:25:33;14.40;99.90
20714;DHT22;10518;50.742;4.226;2022-10-16T06:27:59;14.30;99.90
20714;DHT22;10518;50.742;4.226;2022-10-16T06:30:24;14.20;99.90
20714;DHT22;10518;50.742;4.226;2022-10-16T06:32:50;14.40;99.90
20714;DHT22;10518;50.742;4.226;2022-10-16T06:35:15;14.40;99.90
20714;DHT22;10518;50.742;4.226;2022-10-16T06:37:41;14.50;99.90
20714;DHT22;10518;50.742;4.226;2022-10-16T06:40:07;14.50;99.90
20714;DHT22;10518;50.742;4.226;2022-10-16T06:42:32;14.30;99.90
20714;DHT22;10518;50.742;4.226;2022-10-16T06:44:58;14.30;99.90
20714;DHT22;10518;50.742;4.226;2022-10-16T06:47:23;14.40;99.90
20714;DHT22;10518;50.742;4.226;2022-10-16T06:49:49;14.50;99.90
20714;DHT22;10518;50.742;4.226;2022-10-16T06:52:14;14.90;99.90
20714;DHT22;10518;50.742;4.226;2022-10-16T06:54:40;14.90;99.90
20714;DHT22;10518;50.742;4.226;2022-10-16T06:57:05;14.70;99.90
20714;DHT22;10518;50.742;4.226;2022-10-16T06:59:31;14.60;99.90
20714;DHT22;10518;50.742;4.226;2022-10-16T07:01:56;14.70;99.90
20714;DHT22;10518;50.742;4.226;2022-10-16T07:04:22;15.00;99.90
20714;DHT22;10518;50.742;4.226;2022-10-16T07:06:48;15.10;99.90
20714;DHT22;10518;50.742;4.226;2022-10-16T07:09:13;15.30;99.90
20714;DHT22;10518;50.742;4.226;2022-10-16T07:11:39;15.20;99.90
20714;DHT22;10518;50.742;4.226;2022-10-16T07:14:10;15.10;99.90
20714;DHT22;10518;50.742;4.226;2022-10-16T07:16:39;15.10;99.90
20714;DHT22;10518;50.742;4.226;2022-10-16T07:19:04;15.40;99.90
20714;DHT22;10518;50.742;4.226;2022-10-16T07:21:33;15.40;99.90
20714;DHT22;10518;50.742;4.226;2022-10-16T07:24:01;15.50;99.90
20714;DHT22;10518;50.742;4.226;2022-10-16T07:26:31;15.30;99.90
20714;DHT22;10518;50.742;4.226;2022-10-16T07:28:57;15.50;99.90
20714;DHT22;10518;50.742;4.226;2022-10-16T07:31:23;15.50;99.90
20714;DHT22;10518;50.742;4.226;2022-10-16T07:33:50;15.80;99.90
20714;DHT22;10518;50.742;4.226;2022-10-16T07:36:18;16.00;99.90
20714;DHT22;10518;50.742;4.226;2022-10-16T07:38:44;16.20;99.90
20714;DHT22;10518;50.742;4.226;2022-10-16T07:41:14;16.10;99.90
20714;DHT22;10518;50.742;4.226;2022-10-16T07:43:48;15.90;99.90
20714;DHT22;10518;50.742;4.226;2022-10-16T07:46:15;16.30;99.90
20714;DHT22;10518;50.742;4.226;2022-10-16T07:48:42;16.30;99.90
20714;DHT22;10518;50.742;4.226;2022-10-16T07:51:11;16.30;99.90
20714;DHT22;10518;50.742;4.226;2022-10-16T07:53:37;16.50;99.90
20714;DHT22;10518;50.742;4.226;2022-10-16T07:56:05;16.40;99.90
20714;DHT22;10518;50.742;4.226;2022-10-16T07:58:33;16.20;99.90
20714;DHT22;10518;50.742;4.226;2022-10-16T08:01:03;16.30;99.90
20714;DHT22;10518;50.742;4.226;2022-10-16T08:03:29;16.80;99.90
20714;DHT22;10518;50.742;4.226;2022-10-16T08:05:57;16.40;99.90
20714;DHT22;10518;50.742;4.226;2022-10-16T08:08:22;16.40;99.90
20714;DHT22;10518;50.742;4.226;2022-10-16T08:10:48;16.70;99.90
20714;DHT22;10518;50.742;4.226;2022-10-16T08:13:13;16.70;99.90
20714;DHT22;10518;50.742;4.226;2022-10-16T08:15:41;16.50;99.90
20714;DHT22;10518;50.742;4.226;2022-10-16T08:18:06;16.40;99.90
20714;DHT22;10518;50.742;4.226;2022-10-16T08:20:32;16.60;99.90
20714;DHT22;10518;50.742;4.226;2022-10-16T08:22:59;16.60;99.90
20714;DHT22;10518;50.742;4.226;2022-10-16T08:25:25;16.50;99.90
20714;DHT22;10518;50.742;4.226;2022-10-16T08:27:51;16.60;99.90
20714;DHT22;10518;50.742;4.226;2022-10-16T08:30:18;16.70;99.90
20714;DHT22;10518;50.742;4.226;2022-10-16T08:32:44;16.70;99.90
20714;DHT22;10518;50.742;4.226;2022-10-16T08:35:10;16.60;99.90
20714;DHT22;10518;50.742;4.226;2022-10-16T08:37:36;16.90;99.90
20714;DHT22;10518;50.742;4.226;2022-10-16T08:40:03;16.80;99.90
20714;DHT22;10518;50.742;4.226;2022-10-16T08:42:55;16.90;99.90
20714;DHT22;10518;50.742;4.226;2022-10-16T08:45:59;17.30;99.90
20714;DHT22;10518;50.742;4.226;2022-10-16T08:51:08;16.90;99.90
20714;DHT22;10518;50.742;4.226;2022-10-16T08:54:04;16.70;99.90
20714;DHT22;10518;50.742;4.226;2022-10-16T08:56:31;16.80;99.90
20714;DHT22;10518;50.742;4.226;2022-10-16T08:58:58;16.80;99.90
20714;DHT22;10518;50.742;4.226;2022-10-16T09:01:32;16.80;99.90
20714;DHT22;10518;50.742;4.226;2022-10-16T09:04:20;16.90;99.90
20714;DHT22;10518;50.742;4.226;2022-10-16T09:07:08;16.90;99.90
20714;DHT22;10518;50.742;4.226;2022-10-16T09:09:44;16.90;99.90
20714;DHT22;10518;50.742;4.226;2022-10-16T09:12:18;17.10;99.90
20714;DHT22;10518;50.742;4.226;2022-10-16T09:20:31;17.10;99.90
20714;DHT22;10518;50.742;4.226;2022-10-16T09:23:11;17.30;99.90
20714;DHT22;10518;50.742;4.226;2022-10-16T09:25:39;17.40;99.90
20714;DHT22;10518;50.742;4.226;2022-10-16T09:28:05;17.50;99.90
20714;DHT22;10518;50.742;4.226;2022-10-16T09:30:30;17.30;99.90
20714;DHT22;10518;50.742;4.226;2022-10-16T09:32:58;17.40;99.90
20714;DHT22;10518;50.742;4.226;2022-10-16T09:35:48;17.40;99.90
20714;DHT22;10518;50.742;4.226;2022-10-16T09:38:29;17.60;99.90
20714;DHT22;10518;50.742;4.226;2022-10-16T09:40:57;17.40;99.90
20714;DHT22;10518;50.742;4.226;2022-10-16T09:43:42;17.60;99.90
20714;DHT22;10518;50.742;4.226;2022-10-16T09:46:28;17.70;99.90
20714;DHT22;10518;50.742;4.226;2022-10-16T09:48:57;17.70;99.90
20714;DHT22;10518;50.742;4.226;2022-10-16T09:51:27;17.80;99.90
20714;DHT22;10518;50.742;4.226;2022-10-16T09:54:02;17.60;99.90
20714;DHT22;10518;50.742;4.226;2022-10-16T09:56:37;17.80;99.90
20714;DHT22;10518;50.742;4.226;2022-10-16T10:01:44;17.80;99.90
20714;DHT22;10518;50.742;4.226;2022-10-16T10:04:10;18.00;99.90
20714;DHT22;10518;50.742;4.226;2022-10-16T10:06:40;18.20;99.90
20714;DHT22;10518;50.742;4.226;2022-10-16T10:09:23;18.50;99.90
20714;DHT22;10518;50.742;4.226;2022-10-16T10:11:52;18.20;99.90
20714;DHT22;10518;50.742;4.226;2022-10-16T10:19:48;18.30;99.90
20714;DHT22;10518;50.742;4.226;2022-10-16T10:28:17;18.40;99.90
20714;DHT22;10518;50.742;4.226;2022-10-16T10:38:38;18.40;99.90
20714;DHT22;10518;50.742;4.226;2022-10-16T10:46:56;18.70;99.90
20714;DHT22;10518;50.742;4.226;2022-10-16T10:54:48;18.50;99.90
20714;DHT22;10518;50.742;4.226;2022-10-16T10:57:30;18.50;99.90
20714;DHT22;10518;50.742;4.226;2022-10-16T11:02:57;18.30;99.90
20714;DHT22;10518;50.742;4.226;2022-10-16T11:08:11;18.10;99.90
20714;DHT22;10518;50.742;4.226;2022-10-16T11:11:18;18.30;99.90
20714;DHT22;10518;50.742;4.226;2022-10-16T11:13:57;18.30;99.90
20714;DHT22;10518;50.742;4.226;2022-10-16T11:16:33;18.20;99.90
20714;DHT22;10518;50.742;4.226;2022-10-16T11:19:12;18.30;99.90
20714;DHT22;10518;50.742;4.226;2022-10-16T11:22:12;18.30;99.90
20714;DHT22;10518;50.742;4.226;2022-10-16T11:27:18;18.00;99.90
20714;DHT22;10518;50.742;4.226;2022-10-16T11:29:52;18.50;99.90
20714;DHT22;10518;50.742;4.226;2022-10-16T11:32:24;18.70;99.90
20714;DHT22;10518;50.742;4.226;2022-10-16T11:35:22;18.70;99.90
20714;DHT22;10518;50.742;4.226;2022-10-16T11:37:50;18.50;99.90
20714;DHT22;10518;50.742;4.226;2022-10-16T11:40:23;18.60;99.90
20714;DHT22;10518;50.742;4.226;2022-10-16T11:45:43;18.40;99.90
20714;DHT22;10518;50.742;4.226;2022-10-16T11:48:29;18.50;99.90
20714;DHT22;10518;50.742;4.226;2022-10-16T11:53:51;18.50;99.90
20714;DHT22;10518;50.742;4.226;2022-10-16T11:56:20;18.60;99.90
20714;DHT22;10518;50.742;4.226;2022-10-16T12:01:33;19.00;99.90
20714;DHT22;10518;50.742;4.226;2022-10-16T12:06:51;19.20;99.90
20714;DHT22;10518;50.742;4.226;2022-10-16T12:09:29;19.60;99.90
20714;DHT22;10518;50.742;4.226;2022-10-16T12:11:55;19.60;99.90
20714;DHT22;10518;50.742;4.226;2022-10-16T12:14:41;19.70;99.90
20714;DHT22;10518;50.742;4.226;2022-10-16T12:17:36;19.80;99.90
20714;DHT22;10518;50.742;4.226;2022-10-16T12:22:51;19.40;99.90
20714;DHT22;10518;50.742;4.226;2022-10-16T12:28:01;19.60;99.90
20714;DHT22;10518;50.742;4.226;2022-10-16T12:30:30;19.90;99.90
20714;DHT22;10518;50.742;4.226;2022-10-16T12:32:58;19.90;99.90
20714;DHT22;10518;50.742;4.226;2022-10-16T12:35:28;19.90;99.90
20714;DHT22;10518;50.742;4.226;2022-10-16T12:38:06;19.80;99.90
20714;DHT22;10518;50.742;4.226;2022-10-16T12:40:35;19.90;99.90
20714;DHT22;10518;50.742;4.226;2022-10-16T12:46:24;20.00;99.90
20714;DHT22;10518;50.742;4.226;2022-10-16T12:51:40;20.00;99.90
20714;DHT22;10518;50.742;4.226;2022-10-16T12:54:15;20.20;99.90
20714;DHT22;10518;50.742;4.226;2022-10-16T12:56:48;20.50;99.90
20714;DHT22;10518;50.742;4.226;2022-10-16T13:04:52;20.30;99.90
20714;DHT22;10518;50.742;4.226;2022-10-16T13:16:17;20.10;99.90
20714;DHT22;10518;50.742;4.226;2022-10-16T13:24:33;19.90;99.90
20714;DHT22;10518;50.742;4.226;2022-10-16T13:29:53;20.00;99.90
20714;DHT22;10518;50.742;4.226;2022-10-16T13:32:21;20.20;99.90
20714;DHT22;10518;50.742;4.226;2022-10-16T13:34:48;20.10;99.90
20714;DHT22;10518;50.742;4.226;2022-10-16T13:37:22;20.40;99.90
20714;DHT22;10518;50.742;4.226;2022-10-16T13:39:49;20.40;99.90
20714;DHT22;10518;50.742;4.226;2022-10-16T13:42:27;20.30;99.90
20714;DHT22;10518;50.742;4.226;2022-10-16T13:44:54;20.30;99.90
20714;DHT22;10518;50.742;4.226;2022-10-16T13:47:24;20.40;99.90
20714;DHT22;10518;50.742;4.226;2022-10-16T13:50:11;20.50;99.90
20714;DHT22;10518;50.742;4.226;2022-10-16T13:52:37;20.30;99.90
20714;DHT22;10518;50.742;4.226;2022-10-16T13:55:09;20.10;99.90
20714;DHT22;10518;50.742;4.226;2022-10-16T13:57:35;20.10;99.90
20714;DHT22;10518;50.742;4.226;2022-10-16T14:00:01;20.00;99.90
20714;DHT22;10518;50.742;4.226;2022-10-16T14:02:31;20.00;99.90
20714;DHT22;10518;50.742;4.226;2022-10-16T14:05:01;19.90;99.90
20714;DHT22;10518;50.742;4.226;2022-10-16T14:07:32;20.00;99.90
20714;DHT22;10518;50.742;4.226;2022-10-16T14:10:20;20.00;99.90
20714;DHT22;10518;50.742;4.226;2022-10-16T14:12:55;20.30;99.90
20714;DHT22;10518;50.742;4.226;2022-10-16T14:15:21;20.50;99.90
20714;DHT22;10518;50.742;4.226;2022-10-16T14:17:49;20.40;99.90
20714;DHT22;10518;50.742;4.226;2022-10-16T14:20:16;20.30;99.90
20714;DHT22;10518;50.742;4.226;2022-10-16T14:22:42;20.30;99.90
20714;DHT22;10518;50.742;4.226;2022-10-16T14:25:24;20.30;99.90
20714;DHT22;10518;50.742;4.226;2022-10-16T14:30:35;20.10;99.90
20714;DHT22;10518;50.742;4.226;2022-10-16T14:35:35;19.90;99.90
20714;DHT22;10518;50.742;4.226;2022-10-16T14:38:02;19.90;99.90
20714;DHT22;10518;50.742;4.226;2022-10-16T14:40:34;19.70;99.90
20714;DHT22;10518;50.742;4.226;2022-10-16T14:43:01;19.90;99.90
20714;DHT22;10518;50.742;4.226;2022-10-16T14:45:30;19.70;99.90
20714;DHT22;10518;50.742;4.226;2022-10-16T14:48:01;19.50;99.90
20714;DHT22;10518;50.742;4.226;2022-10-16T14:50:28;19.30;99.90
20714;DHT22;10518;50.742;4.226;2022-10-16T14:52:54;19.50;99.90
20714;DHT22;10518;50.742;4.226;2022-10-16T14:55:20;19.60;99.90
20714;DHT22;10518;50.742;4.226;2022-10-16T14:57:46;19.60;99.90
20714;DHT22;10518;50.742;4.226;2022-10-16T15:00:19;19.70;99.90
20714;DHT22;10518;50.742;4.226;2022-10-16T15:02:45;19.90;99.90
20714;DHT22;10518;50.742;4.226;2022-10-16T15:05:20;19.70;99.90
20714;DHT22;10518;50.742;4.226;2022-10-16T15:07:47;19.80;99.90
20714;DHT22;10518;50.742;4.226;2022-10-16T15:10:15;19.90;99.90
20714;DHT22;10518;50.742;4.226;2022-10-16T15:12:40;19.70;99.90
20714;DHT22;10518;50.742;4.226;2022-10-16T15:15:33;19.50;99.90
20714;DHT22;10518;50.742;4.226;2022-10-16T15:17:59;19.60;99.90
20714;DHT22;10518;50.742;4.226;2022-10-16T15:20:31;19.60;99.90
20714;DHT22;10518;50.742;4.226;2022-10-16T15:23:02;19.80;99.90
20714;DHT22;10518;50.742;4.226;2022-10-16T15:25:37;19.80;99.90
20714;DHT22;10518;50.742;4.226;2022-10-16T15:28:05;19.70;99.90
20714;DHT22;10518;50.742;4.226;2022-10-16T15:30:32;19.60;99.90
20714;DHT22;10518;50.742;4.226;2022-10-16T15:32:58;19.60;99.90
20714;DHT22;10518;50.742;4.226;2022-10-16T15:35:24;19.50;99.90
20714;DHT22;10518;50.742;4.226;2022-10-16T15:37:49;19.30;99.90
20714;DHT22;10518;50.742;4.226;2022-10-16T15:40:16;19.10;99.90
20714;DHT22;10518;50.742;4.226;2022-10-16T15:42:42;19.20;99.90
20714;DHT22;10518;50.742;4.226;2022-10-16T15:45:09;19.20;99.90
20714;DHT22;10518;50.742;4.226;2022-10-16T15:47:35;19.20;99.90
20714;DHT22;10518;50.742;4.226;2022-10-16T15:50:01;19.20;99.90
20714;DHT22;10518;50.742;4.226;2022-10-16T15:52:26;19.20;99.90
20714;DHT22;10518;50.742;4.226;2022-10-16T15:54:54;19.20;99.90
20714;DHT22;10518;50.742;4.226;2022-10-16T15:57:19;19.10;99.90
20714;DHT22;10518;50.742;4.226;2022-10-16T15:59:45;19.00;99.90
20714;DHT22;10518;50.742;4.226;2022-10-16T16:02:10;19.00;99.90
20714;DHT22;10518;50.742;4.226;2022-10-16T16:04:36;18.90;99.90
20714;DHT22;10518;50.742;4.226;2022-10-16T16:07:02;18.80;99.90
20714;DHT22;10518;50.742;4.226;2022-10-16T16:09:30;18.80;99.90
20714;DHT22;10518;50.742;4.226;2022-10-16T16:11:56;18.90;99.90
20714;DHT22;10518;50.742;4.226;2022-10-16T16:14:24;18.90;99.90
20714;DHT22;10518;50.742;4.226;2022-10-16T16:16:51;19.00;99.90
20714;DHT22;10518;50.742;4.226;2022-10-16T16:19:16;19.00;99.90
20714;DHT22;10518;50.742;4.226;2022-10-16T16:21:46;19.00;99.90
20714;DHT22;10518;50.742;4.226;2022-10-16T16:24:12;18.90;99.90
20714;DHT22;10518;50.742;4.226;2022-10-16T16:26:38;18.90;99.90
20714;DHT22;10518;50.742;4.226;2022-10-16T16:29:05;18.90;99.90
20714;DHT22;10518;50.742;4.226;2022-10-16T16:31:32;18.80;99.90
20714;DHT22;10518;50.742;4.226;2022-10-16T16:33:57;18.80;99.90
20714;DHT22;10518;50.742;4.226;2022-10-16T16:36:23;18.80;99.90
20714;DHT22;10518;50.742;4.226;2022-10-16T16:38:49;18.90;99.90
20714;DHT22;10518;50.742;4.226;2022-10-16T16:41:18;18.80;99.90
20714;DHT22;10518;50.742;4.226;2022-10-16T16:43:44;18.80;99.90
20714;DHT22;10518;50.742;4.226;2022-10-16T16:46:10;18.80;99.90
20714;DHT22;10518;50.742;4.226;2022-10-16T16:48:36;18.80;99.90
20714;DHT22;10518;50.742;4.226;2022-10-16T16:51:06;18.90;99.90
20714;DHT22;10518;50.742;4.226;2022-10-16T16:53:36;18.80;99.90
20714;DHT22;10518;50.742;4.226;2022-10-16T16:56:03;18.70;99.90
20714;DHT22;10518;50.742;4.226;2022-10-16T16:58:29;18.70;99.90
20714;DHT22;10518;50.742;4.226;2022-10-16T17:00:55;18.70;99.90
20714;DHT22;10518;50.742;4.226;2022-10-16T17:03:20;18.60;99.90
20714;DHT22;10518;50.742;4.226;2022-10-16T17:06:07;18.50;99.90
20714;DHT22;10518;50.742;4.226;2022-10-16T17:08:36;18.40;99.90
20714;DHT22;10518;50.742;4.226;2022-10-16T17:11:02;18.30;99.90
20714;DHT22;10518;50.742;4.226;2022-10-16T17:13:31;18.20;99.90
20714;DHT22;10518;50.742;4.226;2022-10-16T17:16:00;18.20;99.90
20714;DHT22;10518;50.742;4.226;2022-10-16T17:18:25;18.10;99.90
20714;DHT22;10518;50.742;4.226;2022-10-16T17:20:51;18.10;99.90
20714;DHT22;10518;50.742;4.226;2022-10-16T17:23:18;18.10;99.90
20714;DHT22;10518;50.742;4.226;2022-10-16T17:25:44;18.10;99.90
20714;DHT22;10518;50.742;4.226;2022-10-16T17:28:11;18.10;99.90
20714;DHT22;10518;50.742;4.226;2022-10-16T17:30:41;18.10;99.90
20714;DHT22;10518;50.742;4.226;2022-10-16T17:33:07;18.00;99.90
20714;DHT22;10518;50.742;4.226;2022-10-16T17:35:42;18.00;99.90
20714;DHT22;10518;50.742;4.226;2022-10-16T17:38:08;18.00;99.90